createdAt,value
2022-08-05T00:04:14.218Z,2.60
2022-08-05T00:08:34.364Z,2.42
2022-08-05T00:12:55.922Z,2.40
2022-08-05T00:17:28.616Z,2.53
2022-08-05T00:21:44.666Z,2.85
2022-08-05T00:26:00.901Z,2.33
2022-08-05T00:30:17.785Z,2.85
2022-08-05T00:34:54.016Z,2.50
2022-08-05T00:39:13.993Z,2.60
2022-08-05T00:43:46.854Z,2.55
2022-08-05T00:48:06.265Z,2.40
2022-08-05T00:52:28.534Z,2.28
2022-08-05T00:56:51.538Z,2.43
2022-08-05T01:01:08.900Z,2.80
2022-08-05T01:05:27.384Z,2.80
2022-08-05T01:09:43.681Z,2.50
2022-08-05T01:14:34.786Z,2.67
2022-08-05T01:18:56.612Z,2.90
2022-08-05T01:23:34.864Z,2.40
2022-08-05T01:28:10.349Z,2.40
2022-08-05T01:32:27.922Z,2.67
2022-08-05T01:36:47.669Z,2.55
2022-08-05T01:41:04.760Z,2.30
2022-08-05T01:45:23.658Z,2.78
2022-08-05T01:50:00.272Z,2.37
2022-08-05T01:54:19.665Z,2.55
2022-08-05T01:58:45.111Z,2.00
2022-08-05T02:03:06.933Z,2.40
2022-08-05T02:07:47.230Z,2.60
2022-08-05T02:12:19.238Z,2.75
2022-08-05T02:16:52.248Z,2.15
2022-08-05T02:21:21.911Z,2.50
2022-08-05T02:25:49.045Z,2.87
2022-08-05T02:30:10.667Z,3.22
2022-08-05T02:34:30.159Z,2.78
2022-08-05T02:38:53.237Z,3.03
2022-08-05T02:43:14.105Z,2.75
2022-08-05T02:48:06.594Z,2.40
2022-08-05T02:52:29.953Z,2.47
2022-08-05T02:56:47.278Z,2.67
2022-08-05T03:01:04.647Z,3.10
2022-08-05T03:05:21.669Z,2.95
2022-08-05T03:09:57.577Z,2.90
2022-08-05T03:14:13.872Z,3.40
2022-08-05T03:18:30.858Z,3.12
2022-08-05T03:22:50.109Z,2.90
2022-08-05T03:27:06.843Z,3.20
2022-08-05T03:31:55.890Z,2.55
2022-08-05T03:35:59.912Z,3.37
2022-08-05T03:40:24.146Z,2.87
2022-08-05T03:44:40.747Z,3.03
2022-08-05T03:48:56.824Z,2.90
2022-08-05T03:55:53.788Z,2.90
2022-08-05T03:57:58.347Z,3.17
2022-08-05T04:02:17.390Z,3.30
2022-08-05T04:06:37.539Z,3.10
2022-08-05T04:10:53.631Z,2.80
2022-08-05T04:15:15.527Z,2.62
2022-08-05T04:19:42.075Z,2.67
2022-08-05T04:24:06.438Z,2.45
2022-08-05T04:28:28.494Z,2.47
2022-08-05T04:32:47.887Z,2.75
2022-08-05T04:37:04.495Z,2.60
2022-08-05T04:41:21.071Z,2.62
2022-08-05T04:45:55.042Z,2.80
2022-08-05T04:50:11.869Z,2.90
2022-08-05T04:54:27.967Z,2.87
2022-08-05T04:58:44.329Z,2.65
2022-08-05T05:03:03.662Z,2.60
2022-08-05T05:07:23.765Z,2.87
2022-08-05T05:11:41.521Z,2.70
2022-08-05T05:16:06.951Z,2.90
2022-08-05T05:20:23.247Z,2.72
2022-08-05T05:24:57.012Z,2.72
2022-08-05T05:29:15.302Z,2.60
2022-08-05T05:33:31.453Z,2.42
2022-08-05T05:38:09.260Z,2.55
2022-08-05T05:42:29.033Z,2.40
2022-08-05T05:46:45.091Z,2.33
2022-08-05T05:51:15.181Z,2.10
2022-08-05T05:55:51.690Z,2.50
2022-08-05T06:00:11.636Z,2.28
2022-08-05T06:04:27.739Z,2.55
2022-08-05T06:08:44.536Z,2.30
2022-08-05T06:13:05.468Z,2.28
2022-08-05T06:17:24.635Z,2.15
2022-08-05T06:21:49.415Z,2.62
2022-08-05T06:26:12.553Z,2.12
2022-08-05T06:30:30.104Z,2.08
2022-08-05T06:34:47.064Z,2.10
2022-08-05T06:39:03.251Z,2.17
2022-08-05T06:43:57.867Z,1.70
2022-08-05T06:48:36.309Z,2.00
2022-08-05T06:52:36.784Z,2.10
2022-08-05T06:57:13.935Z,1.67
2022-08-05T07:01:32.279Z,1.90
2022-08-05T07:05:48.601Z,1.90
2022-08-05T07:10:07.106Z,2.17
2022-08-05T07:14:42.378Z,1.83
2022-08-05T07:19:00.342Z,2.00
2022-08-05T07:23:26.284Z,2.30
2022-08-05T07:27:58.422Z,2.33
2022-08-05T07:32:18.627Z,1.92
2022-08-05T07:36:42.638Z,2.53
2022-08-05T07:41:00.356Z,2.37
2022-08-05T07:45:31.162Z,2.00
2022-08-05T07:49:57.056Z,2.08
2022-08-05T07:54:15.142Z,2.40
2022-08-05T07:58:57.593Z,2.20
2022-08-05T08:03:15.935Z,2.22
2022-08-05T08:07:39.609Z,1.98
2022-08-05T08:12:20.246Z,2.87
2022-08-05T08:16:50.938Z,2.45
2022-08-05T08:21:09.544Z,2.45
2022-08-05T08:25:59.097Z,2.42
2022-08-05T08:30:29.727Z,2.10
2022-08-05T08:34:47.661Z,2.00
2022-08-05T08:39:03.809Z,2.20
2022-08-05T08:45:19.143Z,2.30
2022-08-05T08:48:12.725Z,2.10
2022-08-05T08:52:35.861Z,1.87
2022-08-05T08:56:54.268Z,1.90
2022-08-05T09:01:16.018Z,2.10
2022-08-05T09:05:38.837Z,2.00
2022-08-05T09:10:08.944Z,2.17
2022-08-05T09:14:56.990Z,1.98
2022-08-05T09:19:01.591Z,2.28
2022-08-05T09:23:22.886Z,2.30
2022-08-05T09:28:04.774Z,2.22
2022-08-05T09:32:50.233Z,2.40
2022-08-05T09:36:59.795Z,2.33
2022-08-05T09:41:16.299Z,2.30
2022-08-05T09:46:07.277Z,2.30
2022-08-05T09:50:13.522Z,2.30
2022-08-05T09:54:35.630Z,2.12
2022-08-05T09:59:04.194Z,2.37
2022-08-05T10:03:20.837Z,2.22
2022-08-05T10:08:36.586Z,2.20
2022-08-05T10:12:33.351Z,2.30
2022-08-05T10:17:00.023Z,2.40
2022-08-05T10:21:16.602Z,2.47
2022-08-05T10:25:34.743Z,2.35
2022-08-05T10:30:40.842Z,2.20
2022-08-05T10:34:31.005Z,2.22
2022-08-05T10:38:48.517Z,2.20
2022-08-05T10:43:35.922Z,2.05
2022-08-05T10:48:29.904Z,2.35
2022-08-05T10:53:01.113Z,2.22
2022-08-05T10:57:31.815Z,2.12
2022-08-05T11:01:55.233Z,2.60
2022-08-05T11:06:21.354Z,2.08
2022-08-05T11:10:49.961Z,3.28
2022-08-05T11:15:20.252Z,2.40
2022-08-05T11:20:16.760Z,2.10
2022-08-05T11:24:30.554Z,2.28
2022-08-05T11:28:54.981Z,2.10
2022-08-05T11:33:48.176Z,1.95
2022-08-05T11:38:28.001Z,1.85
2022-08-05T11:42:41.985Z,2.50
2022-08-05T11:47:10.892Z,2.22
2022-08-05T11:51:44.224Z,2.20
2022-08-05T11:56:05.708Z,2.65
2022-08-05T12:00:31.303Z,2.10
2022-08-05T12:04:59.712Z,2.40
2022-08-05T12:09:19.811Z,2.17
2022-08-05T12:13:49.057Z,2.03
2022-08-05T12:18:10.566Z,1.92
2022-08-05T12:22:29.936Z,1.83
2022-08-05T12:26:53.658Z,2.10
2022-08-05T12:31:10.137Z,1.70
2022-08-05T12:35:37.028Z,2.10
2022-08-05T12:40:03.499Z,2.00
2022-08-05T12:44:33.469Z,1.95
2022-08-05T12:48:57.377Z,2.22
2022-08-05T12:53:17.177Z,2.03
2022-08-05T12:58:39.101Z,2.20
2022-08-05T13:02:16.417Z,2.03
2022-08-05T13:06:33.567Z,2.15
2022-08-05T13:10:50.309Z,2.20
2022-08-05T13:15:16.300Z,1.90
2022-08-05T13:19:52.396Z,2.28
2022-08-05T13:24:09.171Z,2.15
2022-08-05T13:28:25.145Z,2.08
2022-08-05T13:32:42.268Z,2.33
2022-08-05T13:37:07.334Z,2.08
2022-08-05T13:41:25.794Z,2.20
2022-08-05T13:45:51.892Z,2.30
2022-08-05T13:50:11.311Z,2.30
2022-08-05T13:54:31.254Z,2.12
2022-08-05T13:58:52.843Z,2.22
2022-08-05T14:03:09.520Z,2.30
2022-08-05T14:08:00.228Z,2.05
2022-08-05T14:12:17.490Z,1.95
2022-08-05T14:16:34.794Z,2.10
2022-08-05T14:20:54.808Z,2.10
2022-08-05T14:25:19.165Z,1.73
2022-08-05T14:29:37.933Z,2.10
2022-08-05T14:33:59.542Z,2.00
2022-08-05T14:38:32.911Z,2.20
2022-08-05T14:42:52.332Z,2.37
2022-08-05T14:47:08.823Z,2.10
2022-08-05T14:51:26.477Z,2.20
2022-08-05T14:55:52.079Z,1.95
2022-08-05T15:00:09.286Z,2.33
2022-08-05T15:04:27.381Z,1.90
2022-08-05T15:08:58.667Z,2.42
2022-08-05T15:13:19.355Z,2.20
2022-08-05T15:17:48.614Z,2.00
2022-08-05T15:22:09.167Z,2.40
2022-08-05T15:26:32.182Z,2.35
2022-08-05T15:30:52.956Z,2.20
2022-08-05T15:40:58.968Z,2.47
2022-08-05T15:44:04.761Z,2.33
2022-08-05T15:48:21.203Z,2.45
2022-08-05T15:52:53.089Z,2.28
2022-08-05T15:57:11.242Z,2.05
2022-08-05T16:01:39.401Z,2.17
2022-08-05T16:05:56.183Z,2.00
2022-08-05T16:10:12.131Z,2.60
2022-08-05T16:14:28.197Z,2.28
2022-08-05T16:18:52.758Z,2.20
2022-08-05T16:23:09.355Z,2.60
2022-08-05T16:27:47.164Z,2.42
2022-08-05T16:32:02.944Z,2.30
2022-08-05T16:36:23.805Z,2.17
2022-08-05T16:40:40.186Z,2.15
2022-08-05T16:44:57.055Z,2.30
2022-08-05T16:49:13.534Z,2.37
2022-08-05T16:53:32.043Z,2.30
2022-08-05T16:57:59.915Z,2.17
2022-08-05T17:02:17.115Z,2.50
2022-08-05T17:06:34.044Z,2.42
2022-08-05T17:10:50.301Z,2.58
2022-08-05T17:15:07.636Z,2.20
2022-08-05T17:19:25.259Z,2.00
2022-08-05T17:24:05.963Z,2.90
2022-08-05T17:28:17.312Z,2.20
2022-08-05T17:32:34.585Z,2.58
2022-08-05T17:36:51.292Z,2.25
2022-08-05T17:41:22.954Z,2.90
2022-08-05T17:45:44.554Z,2.72
2022-08-05T17:50:10.174Z,3.05
2022-08-05T17:54:26.991Z,2.87
2022-08-05T17:58:43.212Z,2.87
2022-08-05T18:03:00.563Z,3.15
2022-08-05T18:07:16.601Z,2.80
2022-08-05T18:11:33.893Z,2.95
2022-08-05T18:15:51.353Z,2.87
2022-08-05T18:20:07.939Z,3.22
2022-08-05T18:24:30.244Z,2.60
2022-08-05T18:28:46.586Z,2.53
2022-08-05T18:33:05.302Z,4.07
2022-08-05T18:37:34.399Z,3.50
2022-08-05T18:42:03.751Z,2.95
2022-08-05T18:46:26.056Z,2.33
2022-08-05T18:52:06.506Z,3.33
2022-08-05T18:55:39.910Z,3.15
2022-08-05T19:00:02.155Z,3.00
2022-08-05T19:04:23.983Z,2.75
2022-08-05T19:08:40.406Z,2.80
2022-08-05T19:12:59.609Z,2.90
2022-08-05T19:17:19.126Z,2.53
2022-08-05T19:21:36.122Z,2.47
2022-08-05T19:25:52.700Z,3.05
2022-08-05T19:30:21.001Z,3.08
2022-08-05T19:34:42.063Z,3.50
2022-08-05T19:39:11.563Z,3.20
2022-08-05T19:44:04.546Z,2.78
2022-08-05T19:48:14.599Z,2.90
2022-08-05T19:52:32.878Z,3.25
2022-08-05T19:56:49.481Z,3.62
2022-08-05T20:01:05.938Z,2.90
2022-08-05T20:05:24.864Z,2.90
2022-08-05T20:09:53.558Z,2.58
2022-08-05T20:14:16.559Z,3.05
2022-08-05T20:18:36.528Z,2.78
2022-08-05T20:22:52.755Z,3.22
2022-08-05T20:27:11.358Z,2.87
2022-08-05T20:31:43.074Z,2.90
2022-08-05T20:36:04.931Z,3.00
2022-08-05T20:40:20.939Z,3.10
2022-08-05T20:44:37.934Z,2.85
2022-08-05T20:48:54.771Z,3.28
2022-08-05T20:53:15.918Z,3.05
2022-08-05T20:57:46.921Z,3.30
2022-08-05T21:02:05.148Z,2.95
2022-08-05T21:06:27.753Z,3.12
2022-08-05T21:10:48.886Z,3.12
2022-08-05T21:15:05.562Z,2.92
2022-08-05T21:19:23.503Z,2.70
2022-08-05T21:23:39.595Z,2.90
2022-08-05T21:27:55.527Z,2.80
2022-08-05T21:32:11.717Z,2.50
2022-08-05T21:36:33.249Z,2.93
2022-08-05T21:40:49.317Z,2.97
2022-08-05T21:45:05.788Z,2.75
2022-08-05T21:49:58.637Z,2.83
2022-08-05T21:54:04.038Z,2.90
2022-08-05T21:58:28.794Z,2.67
2022-08-05T22:02:48.450Z,2.90
2022-08-05T22:07:04.404Z,2.70
2022-08-05T22:11:35.445Z,2.60
2022-08-05T22:16:01.499Z,2.90
2022-08-05T22:20:25.381Z,2.87
2022-08-05T22:25:00.598Z,2.60
2022-08-05T22:29:17.493Z,2.92
2022-08-05T22:33:57.196Z,2.67
2022-08-05T22:38:11.269Z,2.80
2022-08-05T22:42:27.856Z,2.90
2022-08-05T22:46:45.158Z,2.97
2022-08-05T22:51:01.282Z,2.97
2022-08-05T22:55:24.048Z,3.13
2022-08-05T22:59:47.392Z,2.83
2022-08-05T23:04:06.595Z,2.85
2022-08-05T23:08:23.552Z,2.58
2022-08-05T23:12:43.821Z,2.80
2022-08-05T23:17:24.170Z,2.87
2022-08-05T23:21:48.965Z,3.10
2022-08-05T23:26:05.099Z,3.10
2022-08-05T23:30:21.114Z,2.92
2022-08-05T23:34:43.189Z,2.72
2022-08-05T23:38:59.499Z,2.83
2022-08-05T23:43:24.773Z,3.08
2022-08-05T23:47:53.565Z,3.03
2022-08-05T23:52:28.443Z,3.12
2022-08-05T23:56:44.585Z,3.50
